createdAt,value
2023-04-02T00:01:26.642Z,101255.22
2023-04-02T00:04:24.028Z,101261.25
2023-04-02T00:07:16.564Z,101264.88
2023-04-02T00:09:43.483Z,101282.69
2023-04-02T00:12:19.151Z,101274.03
2023-04-02T00:14:49.643Z,101280.94
2023-04-02T00:17:16.626Z,101287.25
2023-04-02T00:19:57.491Z,101273.75
2023-04-02T00:22:34.185Z,101270.50
2023-04-02T00:25:11.165Z,101280.19
2023-04-02T00:27:38.045Z,101282.88
2023-04-02T00:30:06.411Z,101285.63
2023-04-02T00:32:36.327Z,101288.25
2023-04-02T00:35:05.179Z,101294.34
2023-04-02T00:37:38.947Z,101297.00
2023-04-02T00:40:17.057Z,101297.78
2023-04-02T00:42:44.796Z,101303.69
2023-04-02T00:45:30.222Z,101304.47
2023-04-02T00:48:16.376Z,101315.66
2023-04-02T00:50:45.060Z,101304.47
2023-04-02T00:53:26.186Z,101300.44
2023-04-02T00:55:53.795Z,101314.38
2023-04-02T00:58:33.252Z,101314.19
2023-04-02T01:01:00.902Z,101315.16
2023-04-02T01:03:36.525Z,101305.78
2023-04-02T01:06:11.824Z,101303.09
2023-04-02T01:09:12.167Z,101314.47
2023-04-02T01:11:41.995Z,101315.50
2023-04-02T01:14:58.958Z,101320.66
2023-04-02T01:18:18.126Z,101327.28
2023-04-02T01:21:09.407Z,101334.75
2023-04-02T01:24:01.333Z,101339.13
2023-04-02T01:27:08.221Z,101344.41
2023-04-02T01:29:40.226Z,101347.25
2023-04-02T01:32:15.555Z,101360.34
2023-04-02T01:34:45.422Z,101364.72
2023-04-02T01:37:56.780Z,101359.38
2023-04-02T01:40:40.664Z,101360.91
2023-04-02T01:43:17.131Z,101373.91
2023-04-02T01:45:44.678Z,101372.97
2023-04-02T01:48:22.584Z,101375.47
2023-04-02T01:50:52.806Z,101386.03
2023-04-02T01:53:23.590Z,101401.38
2023-04-02T01:55:59.430Z,101394.22
2023-04-02T01:58:32.376Z,101408.03
2023-04-02T02:01:18.730Z,101407.03
2023-04-02T02:03:46.876Z,101410.47
2023-04-02T02:06:16.717Z,101419.63
2023-04-02T02:08:56.954Z,101412.47
2023-04-02T02:11:28.900Z,101418.53
2023-04-02T02:14:00.858Z,101419.53
2023-04-02T02:16:30.174Z,101434.38
2023-04-02T02:19:01.977Z,101429.31
2023-04-02T02:21:42.500Z,101433.72
2023-04-02T02:24:27.141Z,101430.25
2023-04-02T02:27:22.922Z,101441.47
2023-04-02T02:30:03.341Z,101446.63
2023-04-02T02:32:33.231Z,101460.53
2023-04-02T02:35:44.762Z,101462.06
2023-04-02T02:38:34.373Z,101464.94
2023-04-02T02:41:21.622Z,101463.63
2023-04-02T02:44:11.234Z,101481.88
2023-04-02T02:46:49.733Z,101479.00
2023-04-02T02:49:22.323Z,101482.06
2023-04-02T02:52:17.453Z,101506.94
2023-04-02T02:55:06.058Z,101491.41
2023-04-02T02:57:57.300Z,101499.94
2023-04-02T03:00:28.330Z,101499.94
2023-04-02T03:02:58.580Z,101505.22
2023-04-02T03:05:30.413Z,101504.34
2023-04-02T03:08:06.603Z,101509.72
2023-04-02T03:10:50.977Z,101498.56
2023-04-02T03:13:24.568Z,101506.63
2023-04-02T03:16:20.716Z,101513.66
2023-04-02T03:18:55.911Z,101523.09
2023-04-02T03:21:51.767Z,101532.19
2023-04-02T03:24:43.505Z,101527.00
2023-04-02T03:27:26.571Z,101546.69
2023-04-02T03:30:21.805Z,101547.63
2023-04-02T03:32:52.545Z,101542.38
2023-04-02T03:35:34.147Z,101543.38
2023-04-02T03:38:16.975Z,101548.44
2023-04-02T03:41:04.972Z,101556.25
2023-04-02T03:43:44.166Z,101558.94
2023-04-02T03:46:41.752Z,101555.22
2023-04-02T03:49:20.479Z,101585.00
2023-04-02T03:52:11.686Z,101577.19
2023-04-02T03:54:40.903Z,101579.78
2023-04-02T03:57:42.020Z,101581.75
2023-04-02T04:00:57.064Z,101586.28
2023-04-02T04:03:39.543Z,101580.53
2023-04-02T04:06:21.523Z,101591.94
2023-04-02T04:09:32.267Z,101590.63
2023-04-02T04:12:35.221Z,101613.22
2023-04-02T04:15:14.510Z,101611.47
2023-04-02T04:18:34.813Z,101620.66
2023-04-02T04:21:16.367Z,101615.41
2023-04-02T04:23:50.982Z,101622.53
2023-04-02T04:26:31.081Z,101621.91
2023-04-02T04:29:19.531Z,101624.72
2023-04-02T04:31:55.579Z,101634.41
2023-04-02T04:34:39.051Z,101625.50
2023-04-02T04:37:07.920Z,101638.59
2023-04-02T04:40:23.203Z,101650.69
2023-04-02T04:43:00.009Z,101650.81
2023-04-02T04:45:55.842Z,101657.44
2023-04-02T04:48:36.330Z,101670.16
2023-04-02T04:51:40.372Z,101667.19
2023-04-02T04:54:15.142Z,101678.47
2023-04-02T04:56:53.406Z,101671.44
2023-04-02T04:59:25.435Z,101685.25
2023-04-02T05:02:00.592Z,101688.78
2023-04-02T05:04:51.963Z,101683.78
2023-04-02T05:07:29.577Z,101683.16
2023-04-02T05:10:27.404Z,101696.06
2023-04-02T05:13:18.910Z,101709.94
2023-04-02T05:16:23.553Z,101703.94
2023-04-02T05:19:16.518Z,101707.50
2023-04-02T05:22:12.893Z,101707.66
2023-04-02T05:25:11.894Z,101716.47
2023-04-02T05:28:18.248Z,101725.09
2023-04-02T05:31:03.241Z,101727.59
2023-04-02T05:33:35.325Z,101734.25
2023-04-02T05:36:08.461Z,101739.41
2023-04-02T05:38:46.623Z,101744.63
2023-04-02T05:41:23.898Z,101746.53
2023-04-02T05:44:08.710Z,101759.69
2023-04-02T05:46:46.076Z,101746.91
2023-04-02T05:49:39.217Z,101758.31
2023-04-02T05:52:16.655Z,101770.09
2023-04-02T05:54:52.512Z,101770.03
2023-04-02T05:57:35.829Z,101782.75
2023-04-02T06:00:21.671Z,101786.03
2023-04-02T06:03:02.459Z,101781.63
2023-04-02T06:05:37.008Z,101794.97
2023-04-02T06:08:15.298Z,101784.97
2023-04-02T06:11:13.553Z,101813.47
2023-04-02T06:13:41.883Z,101817.00
2023-04-02T06:16:15.947Z,101805.44
2023-04-02T06:18:43.659Z,101813.72
2023-04-02T06:21:15.389Z,101805.75
2023-04-02T06:24:06.707Z,101826.84
2023-04-02T06:26:44.451Z,101829.50
2023-04-02T06:29:39.421Z,101841.09
2023-04-02T06:32:11.485Z,101841.97
2023-04-02T06:34:42.651Z,101837.94
2023-04-02T06:37:32.457Z,101845.88
2023-04-02T06:40:33.627Z,101845.03
2023-04-02T06:43:33.616Z,101856.25
2023-04-02T06:46:30.075Z,101836.06
2023-04-02T06:49:31.352Z,101859.66
2023-04-02T06:52:05.048Z,101860.75
2023-04-02T06:54:32.530Z,101862.78
2023-04-02T06:57:07.340Z,101871.72
2023-04-02T06:59:38.055Z,101870.97
2023-04-02T07:02:34.509Z,101874.41
2023-04-02T07:05:09.027Z,101891.72
2023-04-02T07:07:38.964Z,101889.19
2023-04-02T07:10:09.378Z,101902.31
2023-04-02T07:12:36.528Z,101893.78
2023-04-02T07:15:03.872Z,101896.38
2023-04-02T07:17:30.983Z,101889.56
2023-04-02T07:19:57.933Z,101901.06
2023-04-02T07:22:26.795Z,101917.84
2023-04-02T07:24:58.693Z,101916.94
2023-04-02T07:27:26.186Z,101921.56
2023-04-02T07:29:53.044Z,101926.28
2023-04-02T07:32:19.916Z,101921.75
2023-04-02T07:34:47.183Z,101946.53
2023-04-02T07:37:14.673Z,101942.81
2023-04-02T07:39:41.775Z,101936.69
2023-04-02T07:42:08.777Z,101938.66
2023-04-02T07:44:35.755Z,101950.09
2023-04-02T07:47:02.805Z,101951.06
2023-04-02T07:49:29.721Z,101958.81
2023-04-02T07:51:56.760Z,101963.81
2023-04-02T07:54:23.633Z,101968.41
2023-04-02T07:56:50.825Z,101962.94
2023-04-02T07:59:17.755Z,101971.84
2023-04-02T08:01:44.705Z,101978.91
2023-04-02T08:04:21.884Z,101974.94
2023-04-02T08:06:50.368Z,101977.72
2023-04-02T08:09:18.517Z,101988.19
2023-04-02T08:11:46.452Z,101975.56
2023-04-02T08:14:13.636Z,101978.63
2023-04-02T08:16:55.751Z,101981.97
2023-04-02T08:19:23.343Z,102002.25
2023-04-02T08:21:51.973Z,101981.25
2023-04-02T08:24:19.697Z,101999.09
2023-04-02T08:26:48.197Z,102006.13
2023-04-02T08:29:15.821Z,102006.59
2023-04-02T08:31:42.711Z,102006.09
2023-04-02T08:34:10.134Z,102014.16
2023-04-02T08:36:40.027Z,102026.44
2023-04-02T08:39:13.398Z,102024.66
2023-04-02T08:42:21.304Z,102035.44
2023-04-02T08:45:32.245Z,102039.69
2023-04-02T08:48:01.463Z,102044.88
2023-04-02T08:50:35.883Z,102056.91
2023-04-02T08:53:07.192Z,102060.38
2023-04-02T08:56:05.743Z,102057.72
2023-04-02T08:58:41.815Z,102052.66
2023-04-02T09:01:37.806Z,102056.19
2023-04-02T09:04:14.462Z,102070.88
2023-04-02T09:06:43.858Z,102071.38
2023-04-02T09:09:13.298Z,102074.81
2023-04-02T09:12:02.851Z,102072.41
2023-04-02T09:14:33.460Z,102068.69
2023-04-02T09:17:04.186Z,102085.97
2023-04-02T09:19:40.342Z,102083.19
2023-04-02T09:22:21.981Z,102075.72
2023-04-02T09:25:04.908Z,102083.66
2023-04-02T09:27:36.337Z,102086.88
2023-04-02T09:30:43.443Z,102095.28
2023-04-02T09:33:10.958Z,102093.31
2023-04-02T09:35:49.810Z,102087.25
2023-04-02T09:38:32.662Z,102088.38
2023-04-02T09:41:07.501Z,102090.97
2023-04-02T09:43:38.051Z,102086.16
2023-04-02T09:46:18.815Z,102088.22
2023-04-02T09:48:53.156Z,102092.06
2023-04-02T09:51:26.482Z,102105.22
2023-04-02T09:54:02.510Z,102104.44
2023-04-02T09:56:37.396Z,102124.81
2023-04-02T09:59:15.334Z,102120.50
2023-04-02T10:02:06.816Z,102119.41
2023-04-02T10:04:47.970Z,102127.13
2023-04-02T10:07:44.774Z,102134.97
2023-04-02T10:10:44.959Z,102141.03
2023-04-02T10:14:03.254Z,102135.00
2023-04-02T10:16:43.544Z,102145.63
2023-04-02T10:19:28.151Z,102160.44
2023-04-02T10:21:56.586Z,102158.59
2023-04-02T10:24:27.590Z,102158.47
2023-04-02T10:27:22.886Z,102156.28
2023-04-02T10:30:15.423Z,102165.53
2023-04-02T10:33:05.526Z,102173.88
2023-04-02T10:36:00.254Z,102182.56
2023-04-02T10:39:02.502Z,102174.03
2023-04-02T10:41:47.143Z,102170.91
2023-04-02T10:44:28.485Z,102196.31
2023-04-02T10:47:26.686Z,102193.72
2023-04-02T10:50:13.205Z,102187.00
2023-04-02T10:52:48.435Z,102189.84
2023-04-02T10:55:25.426Z,102188.78
2023-04-02T10:57:57.349Z,102198.56
2023-04-02T11:00:36.197Z,102202.75
2023-04-02T11:03:19.189Z,102199.25
2023-04-02T11:05:50.848Z,102209.16
2023-04-02T11:08:27.489Z,102218.06
2023-04-02T11:11:16.515Z,102215.88
2023-04-02T11:14:10.974Z,102220.75
2023-04-02T11:16:41.786Z,102219.38
2023-04-02T11:19:17.026Z,102233.88
2023-04-02T11:21:59.581Z,102229.28
2023-04-02T11:24:31.501Z,102245.19
2023-04-02T11:27:11.642Z,102255.69
2023-04-02T11:29:52.477Z,102255.38
2023-04-02T11:32:23.919Z,102265.09
2023-04-02T11:35:06.407Z,102266.91
2023-04-02T11:37:44.700Z,102277.91
2023-04-02T11:40:12.137Z,102277.53
2023-04-02T11:42:41.795Z,102309.31
2023-04-02T11:45:23.562Z,102281.81
2023-04-02T11:48:05.589Z,102294.00
2023-04-02T11:50:48.518Z,102300.44
2023-04-02T11:53:15.340Z,102297.09
2023-04-02T11:55:45.472Z,102302.38
2023-04-02T11:58:46.295Z,102303.81
2023-04-02T12:01:53.607Z,102319.88
2023-04-02T12:04:37.659Z,102321.00
2023-04-02T12:07:52.247Z,102311.66
2023-04-02T12:10:28.769Z,102324.06
2023-04-02T12:12:55.737Z,102326.56
2023-04-02T12:15:44.374Z,102334.38
2023-04-02T12:18:24.139Z,102331.34
2023-04-02T12:20:56.502Z,102333.72
2023-04-02T12:23:31.318Z,102325.19
2023-04-02T12:26:26.539Z,102326.47
2023-04-02T12:28:53.417Z,102341.47
2023-04-02T12:31:25.113Z,102349.56
2023-04-02T12:33:53.076Z,102344.59
2023-04-02T12:36:22.921Z,102349.13
2023-04-02T12:38:57.397Z,102349.22
2023-04-02T12:41:35.769Z,102362.31
2023-04-02T12:44:15.470Z,102369.28
2023-04-02T12:46:44.011Z,102356.03
2023-04-02T12:49:34.859Z,102365.75
2023-04-02T12:52:13.006Z,102361.16
2023-04-02T12:54:54.090Z,102377.78
2023-04-02T12:57:29.622Z,102377.19
2023-04-02T13:00:20.116Z,102370.28
2023-04-02T13:03:21.542Z,102375.75
2023-04-02T13:05:54.495Z,102386.44
2023-04-02T13:08:33.074Z,102388.78
2023-04-02T13:11:01.915Z,102377.59
2023-04-02T13:13:34.994Z,102380.94
2023-04-02T13:16:25.153Z,102395.75
2023-04-02T13:18:52.120Z,102397.94
2023-04-02T13:21:30.116Z,102398.25
2023-04-02T13:23:57.039Z,102382.81
2023-04-02T13:26:27.138Z,102411.63
2023-04-02T13:29:20.572Z,102402.06
2023-04-02T13:31:47.995Z,102401.56
2023-04-02T13:34:14.948Z,102398.41
2023-04-02T13:36:41.827Z,102409.88
2023-04-02T13:39:08.781Z,102402.66
2023-04-02T13:41:51.762Z,102407.53
2023-04-02T13:44:34.010Z,102420.50
2023-04-02T13:47:01.455Z,102425.66
2023-04-02T13:49:29.309Z,102424.44
2023-04-02T13:52:03.660Z,102409.59
2023-04-02T13:54:51.634Z,102416.94
2023-04-02T13:57:18.709Z,102435.09
2023-04-02T13:59:45.651Z,102421.38
2023-04-02T14:02:23.589Z,102437.38
2023-04-02T14:05:28.691Z,102433.63
2023-04-02T14:08:09.802Z,102431.28
2023-04-02T14:11:03.137Z,102438.09
2023-04-02T14:13:47.031Z,102439.72
2023-04-02T14:16:27.884Z,102437.34
2023-04-02T14:19:03.470Z,102428.31
2023-04-02T14:21:58.280Z,102432.06
2023-04-02T14:25:06.202Z,102436.94
2023-04-02T14:28:06.535Z,102446.34
2023-04-02T14:30:54.784Z,102458.00
2023-04-02T14:34:13.950Z,102452.97
2023-04-02T14:37:07.356Z,102447.91
2023-04-02T14:39:51.195Z,102450.72
2023-04-02T14:42:35.671Z,102460.84
2023-04-02T14:45:12.768Z,102470.50
2023-04-02T14:47:46.419Z,102471.66
2023-04-02T14:50:19.885Z,102474.22
2023-04-02T14:52:52.499Z,102479.59
2023-04-02T14:55:38.017Z,102471.13
2023-04-02T14:58:26.531Z,102473.06
2023-04-02T15:01:15.326Z,102470.34
2023-04-02T15:04:15.424Z,102485.16
2023-04-02T15:06:48.452Z,102481.13
2023-04-02T15:09:45.547Z,102476.84
2023-04-02T15:12:26.433Z,102484.69
2023-04-02T15:15:07.907Z,102497.72
2023-04-02T15:17:36.103Z,102502.44
2023-04-02T15:20:15.948Z,102490.97
2023-04-02T15:23:11.602Z,102503.38
2023-04-02T15:26:08.023Z,102500.31
2023-04-02T15:28:57.325Z,102508.22
2023-04-02T15:31:27.862Z,102524.41
2023-04-02T15:34:20.768Z,102520.72
2023-04-02T15:36:55.826Z,102518.91
2023-04-02T15:39:39.103Z,102525.75
2023-04-02T15:42:18.014Z,102517.97
2023-04-02T15:44:58.681Z,102521.31
2023-04-02T15:47:49.752Z,102531.00
2023-04-02T15:51:11.561Z,102522.94
2023-04-02T15:54:12.145Z,102540.09
2023-04-02T15:57:21.011Z,102527.66
2023-04-02T16:00:19.616Z,102525.88
2023-04-02T16:03:18.915Z,102552.81
2023-04-02T16:06:27.909Z,102553.72
2023-04-02T16:09:08.018Z,102555.09
2023-04-02T16:11:36.412Z,102549.91
2023-04-02T16:14:22.610Z,102554.94
2023-04-02T16:16:52.580Z,102558.28
2023-04-02T16:19:56.655Z,102564.34
2023-04-02T16:22:30.405Z,102572.28
2023-04-02T16:25:20.599Z,102564.97
2023-04-02T16:28:00.583Z,102581.69
2023-04-02T16:30:41.205Z,102592.72
2023-04-02T16:33:34.742Z,102593.22
2023-04-02T16:36:53.966Z,102584.28
2023-04-02T16:39:47.022Z,102602.53
2023-04-02T16:42:32.109Z,102614.97
2023-04-02T16:45:13.332Z,102624.44
2023-04-02T16:48:17.617Z,102617.25
2023-04-02T16:51:24.599Z,102617.47
2023-04-02T16:54:19.398Z,102631.63
2023-04-02T16:57:20.457Z,102636.97
2023-04-02T17:00:04.195Z,102640.69
2023-04-02T17:02:47.171Z,102646.75
2023-04-02T17:05:58.550Z,102627.34
2023-04-02T17:08:30.591Z,102647.41
2023-04-02T17:11:06.358Z,102653.72
2023-04-02T17:13:47.310Z,102661.53
2023-04-02T17:16:34.646Z,102671.88
2023-04-02T17:19:01.923Z,102663.97
2023-04-02T17:21:31.124Z,102657.31
2023-04-02T17:24:11.094Z,102670.03
2023-04-02T17:26:38.452Z,102665.13
2023-04-02T17:29:15.799Z,102684.66
2023-04-02T17:31:44.082Z,102673.25
2023-04-02T17:34:16.797Z,102684.44
2023-04-02T17:36:57.457Z,102684.28
2023-04-02T17:39:47.040Z,102680.69
2023-04-02T17:42:29.642Z,102687.38
2023-04-02T17:45:22.406Z,102686.31
2023-04-02T17:47:59.609Z,102691.22
2023-04-02T17:50:56.120Z,102693.28
2023-04-02T17:53:43.298Z,102701.72
2023-04-02T17:56:55.036Z,102699.44
2023-04-02T17:59:52.501Z,102708.53
2023-04-02T18:02:42.446Z,102717.44
2023-04-02T18:05:17.381Z,102715.63
2023-04-02T18:08:25.939Z,102715.44
2023-04-02T18:11:10.747Z,102737.41
2023-04-02T18:14:27.604Z,102732.19
2023-04-02T18:17:25.882Z,102738.78
2023-04-02T18:20:16.681Z,102746.41
2023-04-02T18:22:55.301Z,102745.41
2023-04-02T18:26:21.203Z,102746.94
2023-04-02T18:29:22.896Z,102752.09
2023-04-02T18:32:18.491Z,102766.59
2023-04-02T18:35:25.996Z,102769.72
2023-04-02T18:38:11.548Z,102766.94
2023-04-02T18:41:03.029Z,102773.41
2023-04-02T18:44:01.106Z,102780.78
2023-04-02T18:46:39.923Z,102786.84
2023-04-02T18:49:39.024Z,102793.69
2023-04-02T18:52:15.624Z,102787.59
2023-04-02T18:54:52.952Z,102796.16
2023-04-02T18:57:29.563Z,102794.28
2023-04-02T19:00:18.147Z,102796.16
2023-04-02T19:03:12.898Z,102805.50
2023-04-02T19:05:44.801Z,102806.00
2023-04-02T19:08:19.717Z,102811.69
2023-04-02T19:10:51.909Z,102808.81
2023-04-02T19:13:20.398Z,102819.13
2023-04-02T19:16:15.439Z,102820.81
2023-04-02T19:19:19.643Z,102827.63
2023-04-02T19:22:08.634Z,102832.03
2023-04-02T19:25:21.712Z,102833.50
2023-04-02T19:28:29.069Z,102833.22
2023-04-02T19:31:23.094Z,102816.47
2023-04-02T19:34:09.191Z,102832.22
2023-04-02T19:36:45.365Z,102833.31
2023-04-02T19:39:41.902Z,102833.59
2023-04-02T19:42:41.516Z,102844.81
2023-04-02T19:45:36.572Z,102840.03
2023-04-02T19:48:21.727Z,102848.72
2023-04-02T19:50:49.303Z,102852.75
2023-04-02T19:53:17.165Z,102859.50
2023-04-02T19:55:44.849Z,102847.59
2023-04-02T19:58:30.939Z,102868.44
2023-04-02T20:00:58.292Z,102865.53
2023-04-02T20:03:25.276Z,102866.94
2023-04-02T20:05:52.778Z,102866.56
2023-04-02T20:08:19.954Z,102867.81
2023-04-02T20:10:47.756Z,102869.19
2023-04-02T20:13:14.743Z,102872.47
2023-04-02T20:15:41.768Z,102869.88
2023-04-02T20:18:10.425Z,102873.28
2023-04-02T20:20:39.216Z,102868.56
2023-04-02T20:23:06.513Z,102873.84
2023-04-02T20:25:33.407Z,102880.50
2023-04-02T20:28:01.089Z,102892.25
2023-04-02T20:30:28.027Z,102869.94
2023-04-02T20:32:55.643Z,102885.41
2023-04-02T20:35:22.683Z,102893.50
2023-04-02T20:37:49.778Z,102896.44
2023-04-02T20:40:16.772Z,102896.00
2023-04-02T20:42:43.665Z,102906.66
2023-04-02T20:45:11.004Z,102905.25
2023-04-02T20:47:38.391Z,102912.84
2023-04-02T20:50:06.127Z,102914.41
2023-04-02T20:52:33.923Z,102918.56
2023-04-02T20:55:01.660Z,102914.91
2023-04-02T20:57:31.534Z,102913.47
2023-04-02T20:59:59.011Z,102923.56
2023-04-02T21:02:26.141Z,102916.63
2023-04-02T21:04:53.103Z,102924.25
2023-04-02T21:07:20.070Z,102925.94
2023-04-02T21:09:46.937Z,102931.97
2023-04-02T21:12:14.177Z,102930.28
2023-04-02T21:14:41.068Z,102924.94
2023-04-02T21:17:08.054Z,102926.28
2023-04-02T21:19:35.659Z,102935.56
2023-04-02T21:22:03.358Z,102934.69
2023-04-02T21:24:30.360Z,102934.69
2023-04-02T21:26:57.236Z,102944.19
2023-04-02T21:29:24.101Z,102935.56
2023-04-02T21:31:51.029Z,102936.59
2023-04-02T21:34:18.029Z,102929.06
2023-04-02T21:36:47.513Z,102943.84
2023-04-02T21:39:24.430Z,102947.00
2023-04-02T21:41:53.201Z,102954.59
2023-04-02T21:44:22.103Z,102948.56
2023-04-02T21:46:51.885Z,102960.41
2023-04-02T21:49:26.113Z,102955.25
2023-04-02T21:51:53.151Z,102959.63
2023-04-02T21:54:20.489Z,102954.03
2023-04-02T21:56:47.861Z,102957.16
2023-04-02T21:59:16.945Z,102961.50
2023-04-02T22:01:48.203Z,102970.91
2023-04-02T22:04:21.686Z,102965.44
2023-04-02T22:06:49.748Z,102970.28
2023-04-02T22:09:23.125Z,102972.38
2023-04-02T22:11:59.044Z,102971.38
2023-04-02T22:14:27.312Z,102974.59
2023-04-02T22:16:54.424Z,102972.72
2023-04-02T22:19:21.660Z,102974.25
2023-04-02T22:21:48.539Z,102974.19
2023-04-02T22:24:18.810Z,102968.81
2023-04-02T22:26:46.088Z,102976.41
2023-04-02T22:29:13.153Z,102977.28
2023-04-02T22:31:40.435Z,102976.41
2023-04-02T22:34:07.675Z,102977.50
2023-04-02T22:36:35.887Z,102976.75
2023-04-02T22:39:05.646Z,102975.06
2023-04-02T22:41:33.096Z,102978.66
2023-04-02T22:44:01.877Z,102989.69
2023-04-02T22:46:30.188Z,102983.78
2023-04-02T22:48:57.467Z,102994.16
2023-04-02T22:51:25.941Z,102992.63
2023-04-02T22:53:54.823Z,102999.66
2023-04-02T22:56:26.661Z,103010.88
2023-04-02T22:58:53.612Z,102997.22
2023-04-02T23:01:28.473Z,102997.22
2023-04-02T23:03:56.013Z,103002.56
2023-04-02T23:06:23.913Z,102995.88
2023-04-02T23:08:51.671Z,103000.34
2023-04-02T23:11:24.631Z,102999.88
2023-04-02T23:13:54.672Z,103003.47
2023-04-02T23:16:22.807Z,103007.72
2023-04-02T23:18:50.132Z,103002.59
2023-04-02T23:21:18.412Z,103001.69
2023-04-02T23:23:46.303Z,102987.81
2023-04-02T23:26:21.953Z,102998.66
2023-04-02T23:28:50.133Z,102986.03
2023-04-02T23:31:21.270Z,103002.34
2023-04-02T23:33:49.106Z,103003.03
2023-04-02T23:36:32.486Z,102993.84
2023-04-02T23:39:12.374Z,103010.28
2023-04-02T23:41:41.631Z,102998.97
2023-04-02T23:44:09.839Z,103008.91
2023-04-02T23:46:36.800Z,103003.53
2023-04-02T23:49:04.262Z,102997.69
2023-04-02T23:51:32.265Z,102995.34
2023-04-02T23:53:59.569Z,102998.50
2023-04-02T23:56:27.013Z,102997.34
2023-04-02T23:58:54.010Z,102992.06
